82TE weather

CLOSED Tarry Bank Airport
Leon Springs, Texas, United States

Public forecast

Using degrees Fahrenheit for public forecast. Weather courtesy of forecast.io.

METAR (pilot weather report)

Closest report is Boerne Stage Field, 2.1 nm (3.8 km) NNE. Retrieved 2019/07/18 10:35 UTC (0 seconds ago):

K5C1 181035Z AUTO 17008KT 10SM BKN012 OVC020 23/22 A3006 RMK AO1

TAF (pilot weather forecast)

Closest forecast is San Antonio International Airport, 15.6 nm (28.9 km) SE. Retrieved 2019/07/18 06:33 UTC (4 hours ago):

TAF KSAT 180531Z 1806/1912 13009KT P6SM FEW012 FM180700 16009KT P6SM BKN012 FM181500 15015KT P6SM SCT050 FM190700 16009KT P6SM BKN012